createdAt,value
2019-05-10T00:01:57.976Z,4.90
2019-05-10T00:04:46.420Z,5.53
2019-05-10T00:07:34.929Z,3.70
2019-05-10T00:10:05.797Z,4.87
2019-05-10T00:12:43.442Z,5.90
2019-05-10T00:15:15.246Z,6.27
2019-05-10T00:17:46.764Z,5.10
2019-05-10T00:20:17.008Z,6.40
2019-05-10T00:22:47.373Z,5.20
2019-05-10T00:25:17.794Z,2.97
2019-05-10T00:27:48.109Z,7.13
2019-05-10T00:30:18.729Z,5.80
2019-05-10T00:32:48.953Z,11.27
2019-05-10T00:35:19.308Z,6.23
2019-05-10T00:37:49.785Z,5.87
2019-05-10T00:40:19.969Z,3.93
2019-05-10T00:42:50.534Z,4.43
2019-05-10T00:45:20.813Z,6.83
2019-05-10T00:47:51.137Z,6.43
2019-05-10T00:50:21.612Z,6.73
2019-05-10T00:52:51.917Z,5.40
2019-05-10T00:55:22.464Z,10.20
2019-05-10T00:57:52.961Z,4.10
2019-05-10T01:00:23.579Z,9.80
2019-05-10T01:02:54.073Z,8.37
2019-05-10T01:05:24.346Z,7.80
2019-05-10T01:07:54.705Z,4.13
2019-05-10T01:10:25.244Z,3.87
2019-05-10T01:12:55.728Z,3.87
2019-05-10T01:15:26.009Z,8.07
2019-05-10T01:17:56.425Z,5.30
2019-05-10T01:20:26.860Z,5.70
2019-05-10T01:22:57.241Z,5.33
2019-05-10T01:25:35.007Z,6.63
2019-05-10T01:27:59.569Z,3.60
2019-05-10T01:30:30.033Z,6.17
2019-05-10T01:33:00.449Z,8.00
2019-05-10T01:35:30.932Z,6.53
2019-05-10T01:38:01.573Z,3.73
2019-05-10T01:40:31.788Z,5.33
2019-05-10T01:43:02.055Z,7.70
2019-05-10T01:45:32.544Z,7.03
2019-05-10T01:48:03.021Z,8.20
2019-05-10T01:50:33.328Z,8.60
2019-05-10T01:53:03.769Z,4.63
2019-05-10T01:55:50.464Z,5.97
2019-05-10T01:58:06.369Z,5.83
2019-05-10T02:00:36.586Z,5.07
2019-05-10T02:03:06.937Z,4.47
2019-05-10T02:05:37.237Z,6.73
2019-05-10T02:08:07.525Z,4.90
2019-05-10T02:10:37.906Z,4.70
2019-05-10T02:13:08.105Z,5.93
2019-05-10T02:15:38.398Z,13.37
2019-05-10T02:18:08.885Z,4.93
2019-05-10T02:20:39.085Z,3.93
2019-05-10T02:23:09.444Z,6.10
2019-05-10T02:25:39.815Z,7.30
2019-05-10T02:28:10.508Z,6.93
2019-05-10T02:30:40.797Z,8.23
2019-05-10T02:33:11.311Z,5.47
2019-05-10T02:35:41.805Z,6.23
2019-05-10T02:38:12.354Z,7.43
2019-05-10T02:40:42.809Z,7.53
2019-05-10T02:43:13.158Z,6.33
2019-05-10T02:45:43.523Z,6.03
2019-05-10T02:48:13.777Z,4.47
2019-05-10T02:50:44.143Z,5.00
2019-05-10T02:53:14.920Z,6.93
2019-05-10T02:55:45.722Z,4.07
2019-05-10T02:58:16.422Z,5.57
2019-05-10T03:00:48.771Z,5.37
2019-05-10T03:03:21.453Z,5.03
2019-05-10T03:05:53.752Z,5.40
2019-05-10T03:08:24.133Z,7.57
2019-05-10T03:10:58.553Z,4.47
2019-05-10T03:13:30.771Z,6.53
2019-05-10T03:16:02.969Z,5.83
2019-05-10T03:18:33.815Z,4.77
2019-05-10T03:21:06.436Z,6.80
2019-05-10T03:23:36.737Z,5.17
2019-05-10T03:26:07.010Z,6.93
2019-05-10T03:28:37.303Z,6.47
2019-05-10T03:31:08.119Z,4.77
2019-05-10T03:33:38.463Z,5.53
2019-05-10T03:36:09.236Z,6.50
2019-05-10T03:38:39.609Z,6.43
2019-05-10T03:41:09.945Z,7.93
2019-05-10T03:43:40.246Z,7.77
2019-05-10T03:46:10.534Z,5.40
2019-05-10T03:48:40.801Z,8.23
2019-05-10T03:51:11.102Z,6.23
2019-05-10T03:53:41.569Z,8.10
2019-05-10T03:56:11.841Z,7.40
2019-05-10T03:58:42.227Z,6.67
2019-05-10T04:01:12.954Z,6.63
2019-05-10T04:03:43.230Z,8.00
2019-05-10T04:06:13.629Z,5.40
2019-05-10T04:08:43.988Z,7.63
2019-05-10T04:11:14.442Z,6.40
2019-05-10T04:13:44.953Z,4.17
2019-05-10T04:16:15.340Z,5.33
2019-05-10T04:18:45.671Z,6.00
2019-05-10T04:21:16.007Z,3.13
2019-05-10T04:23:46.406Z,5.30
2019-05-10T04:26:16.881Z,5.07
2019-05-10T04:28:47.049Z,7.20
2019-05-10T04:31:18.353Z,6.07
2019-05-10T04:33:48.670Z,5.17
2019-05-10T04:36:19.193Z,5.57
2019-05-10T04:38:49.538Z,5.13
2019-05-10T04:41:19.767Z,3.43
2019-05-10T04:43:50.224Z,6.23
2019-05-10T04:46:20.521Z,5.33
2019-05-10T04:48:50.863Z,5.77
2019-05-10T04:51:21.361Z,6.47
2019-05-10T04:53:51.497Z,5.93
2019-05-10T04:56:21.802Z,5.33
2019-05-10T04:58:52.115Z,5.43
2019-05-10T05:01:22.496Z,4.20
2019-05-10T05:03:53.141Z,6.20
2019-05-10T05:06:23.637Z,10.80
2019-05-10T05:08:54.122Z,6.40
2019-05-10T05:11:24.521Z,4.87
2019-05-10T05:13:54.941Z,5.03
2019-05-10T05:16:25.227Z,3.23
2019-05-10T05:18:55.640Z,4.43
2019-05-10T05:21:26.318Z,5.47
2019-05-10T05:23:56.617Z,6.43
2019-05-10T05:26:27.170Z,6.20
2019-05-10T05:28:57.378Z,5.47
2019-05-10T05:31:27.861Z,6.37
2019-05-10T05:33:59.075Z,5.20
2019-05-10T05:36:30.497Z,4.93
2019-05-10T05:39:00.997Z,6.00
2019-05-10T05:41:31.960Z,2.80
2019-05-10T05:44:02.477Z,6.20
2019-05-10T05:46:32.773Z,4.07
2019-05-10T05:49:03.261Z,5.83
2019-05-10T05:51:33.955Z,6.70
2019-05-10T05:54:04.627Z,5.27
2019-05-10T05:56:34.925Z,4.73
2019-05-10T05:59:08.648Z,10.40
2019-05-10T06:01:37.440Z,6.57
2019-05-10T06:04:12.502Z,3.40
2019-05-10T06:06:40.034Z,6.13
2019-05-10T06:09:10.577Z,5.53
2019-05-10T06:11:41.049Z,3.80
2019-05-10T06:14:13.015Z,10.10
2019-05-10T06:16:45.043Z,3.23
2019-05-10T06:19:19.869Z,3.80
2019-05-10T06:21:47.615Z,4.17
2019-05-10T06:24:17.830Z,5.20
2019-05-10T06:26:48.229Z,3.70
2019-05-10T06:29:19.911Z,3.67
2019-05-10T06:31:50.254Z,8.87
2019-05-10T06:34:20.953Z,4.87
2019-05-10T06:36:51.581Z,4.80
2019-05-10T06:39:21.837Z,4.07
2019-05-10T06:41:55.949Z,5.47
2019-05-10T06:44:25.007Z,2.93
2019-05-10T06:46:56.438Z,3.40
2019-05-10T06:49:26.737Z,4.13
2019-05-10T06:51:57.109Z,4.57
2019-05-10T06:54:27.453Z,4.80
2019-05-10T06:56:57.664Z,4.47
2019-05-10T06:59:28.157Z,4.90
2019-05-10T07:01:58.616Z,4.27
2019-05-10T07:04:29.183Z,3.60
2019-05-10T07:06:59.466Z,4.33
2019-05-10T07:09:29.774Z,2.23
2019-05-10T07:12:00.133Z,2.83
2019-05-10T07:14:30.525Z,5.40
2019-05-10T07:17:02.507Z,3.30
2019-05-10T07:19:34.816Z,4.27
2019-05-10T07:22:05.153Z,3.87
2019-05-10T07:24:35.304Z,3.07
2019-05-10T07:27:06.118Z,3.77
2019-05-10T07:29:42.982Z,4.60
2019-05-10T07:32:08.522Z,5.60
2019-05-10T07:34:38.934Z,3.43
2019-05-10T07:37:09.490Z,6.73
2019-05-10T07:39:39.840Z,2.27
2019-05-10T07:42:10.142Z,4.67
2019-05-10T07:44:41.477Z,3.10
2019-05-10T07:47:12.569Z,4.87
2019-05-10T07:49:42.889Z,6.60
2019-05-10T07:52:13.446Z,3.33
2019-05-10T07:54:47.513Z,3.67
2019-05-10T07:57:18.733Z,3.93
2019-05-10T07:59:50.602Z,4.10
2019-05-10T08:02:19.691Z,5.03
2019-05-10T08:04:53.055Z,4.00
2019-05-10T08:07:22.072Z,4.80
2019-05-10T08:09:52.453Z,4.43
2019-05-10T08:12:22.861Z,4.50
2019-05-10T08:14:53.665Z,3.13
2019-05-10T08:17:24.097Z,9.73
2019-05-10T08:19:54.509Z,4.13
2019-05-10T08:22:24.937Z,4.20
2019-05-10T08:24:56.413Z,4.13
2019-05-10T08:27:26.841Z,6.97
2019-05-10T08:30:17.980Z,2.37
2019-05-10T08:32:32.237Z,4.63
2019-05-10T08:35:05.127Z,3.77
2019-05-10T08:37:37.566Z,3.37
2019-05-10T08:40:05.961Z,5.10
2019-05-10T08:42:45.359Z,3.23
2019-05-10T08:45:09.182Z,5.40
2019-05-10T08:47:39.529Z,5.00
2019-05-10T08:50:22.392Z,4.60
2019-05-10T08:52:42.316Z,3.63
2019-05-10T08:55:13.021Z,4.43
2019-05-10T08:57:47.916Z,10.47
2019-05-10T09:00:15.521Z,5.20
2019-05-10T09:02:45.893Z,3.93
2019-05-10T09:05:21.052Z,2.70
2019-05-10T09:07:48.466Z,3.90
2019-05-10T09:10:19.361Z,3.73
2019-05-10T09:12:54.253Z,4.37
2019-05-10T09:15:22.399Z,5.70
2019-05-10T09:17:52.873Z,6.10
2019-05-10T09:20:26.392Z,3.20
2019-05-10T09:22:55.331Z,5.50
2019-05-10T09:25:29.543Z,5.30
2019-05-10T09:28:02.457Z,4.43
2019-05-10T09:30:35.503Z,7.80
2019-05-10T09:33:08.613Z,5.77
2019-05-10T09:35:38.808Z,6.93
2019-05-10T09:38:12.253Z,6.23
2019-05-10T09:40:50.775Z,4.27
2019-05-10T09:43:14.959Z,4.37
2019-05-10T09:45:45.693Z,6.63
2019-05-10T09:48:16.799Z,5.40
2019-05-10T09:50:47.446Z,9.23
2019-05-10T09:53:23.647Z,5.00
2019-05-10T09:55:55.325Z,4.10
2019-05-10T09:58:22.584Z,2.70
2019-05-10T10:00:53.074Z,5.13
2019-05-10T10:03:23.769Z,4.13
2019-05-10T10:05:55.267Z,4.07
2019-05-10T10:08:28.137Z,4.33
2019-05-10T10:11:01.197Z,4.53
2019-05-10T10:13:39.484Z,6.50
2019-05-10T10:16:04.141Z,5.83
2019-05-10T10:18:34.077Z,5.40
2019-05-10T10:21:04.801Z,4.23
2019-05-10T10:23:37.755Z,4.47
2019-05-10T10:26:07.379Z,4.90
2019-05-10T10:28:39.693Z,4.17
2019-05-10T10:31:09.996Z,7.27
2019-05-10T10:33:42.860Z,5.50
2019-05-10T10:36:12.765Z,4.37
2019-05-10T10:38:45.567Z,3.07
2019-05-10T10:41:17.062Z,4.40
2019-05-10T10:43:48.438Z,5.97
2019-05-10T10:46:19.924Z,3.77
2019-05-10T10:48:51.442Z,5.23
2019-05-10T10:51:26.687Z,4.67
2019-05-10T10:53:54.742Z,4.97
2019-05-10T10:56:27.658Z,3.97
2019-05-10T10:58:58.436Z,6.43
2019-05-10T11:01:45.686Z,3.73
2019-05-10T11:04:03.561Z,4.53
2019-05-10T11:06:33.807Z,5.17
2019-05-10T11:09:07.333Z,7.57
2019-05-10T11:11:43.866Z,5.30
2019-05-10T11:14:11.049Z,4.03
2019-05-10T11:16:46.340Z,4.33
2019-05-10T11:19:15.535Z,3.83
2019-05-10T11:21:45.722Z,4.40
2019-05-10T11:24:18.575Z,3.00
2019-05-10T11:26:48.025Z,6.97
2019-05-10T11:29:25.581Z,5.73
2019-05-10T11:32:11.182Z,4.30
2019-05-10T11:34:22.409Z,5.13
2019-05-10T11:36:52.626Z,5.20
2019-05-10T11:39:26.362Z,4.50
2019-05-10T11:42:02.136Z,6.70
2019-05-10T11:44:27.020Z,3.90
2019-05-10T11:46:57.395Z,6.07
2019-05-10T11:49:27.790Z,7.00
2019-05-10T11:51:58.864Z,5.60
2019-05-10T11:54:31.867Z,7.73
2019-05-10T11:57:06.686Z,7.60
2019-05-10T11:59:38.585Z,4.43
2019-05-10T12:02:10.257Z,4.67
2019-05-10T12:04:40.385Z,6.73
2019-05-10T12:07:12.976Z,4.50
2019-05-10T12:09:42.780Z,8.13
2019-05-10T12:12:13.117Z,3.47
2019-05-10T12:14:46.540Z,5.10
2019-05-10T12:17:15.586Z,3.40
2019-05-10T12:22:21.486Z,2.93
2019-05-10T12:25:06.239Z,3.73
2019-05-10T12:26:05.396Z,6.57
2019-05-10T12:27:28.545Z,3.97
2019-05-10T12:29:59.694Z,6.13
2019-05-10T12:32:27.077Z,8.93
2019-05-10T12:34:57.956Z,4.90
2019-05-10T12:37:30.706Z,2.67
2019-05-10T12:40:09.002Z,5.30
2019-05-10T12:42:32.446Z,3.13
2019-05-10T12:45:03.701Z,9.20
2019-05-10T12:47:34.173Z,4.03
2019-05-10T12:50:08.479Z,3.83
2019-05-10T12:52:38.760Z,6.43
2019-05-10T12:55:09.285Z,3.40
2019-05-10T12:57:42.892Z,5.43
2019-05-10T13:00:13.076Z,8.07
2019-05-10T13:02:44.833Z,3.97
2019-05-10T13:05:16.292Z,2.93
2019-05-10T13:07:46.615Z,4.10
2019-05-10T13:10:17.202Z,4.57
2019-05-10T13:12:47.663Z,5.97
2019-05-10T13:15:18.305Z,2.53
2019-05-10T13:17:50.924Z,4.83
2019-05-10T13:20:20.708Z,3.30
2019-05-10T13:22:50.990Z,7.03
2019-05-10T13:25:21.530Z,5.13
2019-05-10T13:27:51.805Z,4.73
2019-05-10T13:30:27.076Z,5.93
2019-05-10T13:32:58.768Z,4.43
2019-05-10T13:35:26.016Z,3.27
2019-05-10T13:37:56.828Z,5.60
2019-05-10T13:40:28.307Z,5.73
2019-05-10T13:42:58.589Z,7.60
2019-05-10T13:45:31.648Z,7.93
2019-05-10T13:48:00.880Z,6.10
2019-05-10T13:50:31.108Z,7.00
2019-05-10T13:53:01.513Z,6.67
2019-05-10T13:55:32.333Z,8.63
2019-05-10T13:58:02.814Z,8.20
2019-05-10T14:00:35.650Z,6.90
2019-05-10T14:03:11.505Z,4.23
2019-05-10T14:05:40.006Z,5.57
2019-05-10T14:08:09.546Z,8.40
2019-05-10T14:10:40.048Z,5.43
2019-05-10T14:13:10.717Z,4.67
2019-05-10T14:15:41.098Z,4.00
2019-05-10T14:18:11.853Z,6.67
2019-05-10T14:20:42.248Z,6.67
2019-05-10T14:23:12.739Z,6.30
2019-05-10T14:25:43.249Z,4.97
2019-05-10T14:28:15.872Z,5.17
2019-05-10T14:30:46.945Z,6.00
2019-05-10T14:33:17.885Z,3.40
2019-05-10T14:35:48.398Z,5.03
2019-05-10T14:38:20.930Z,6.10
2019-05-10T14:40:51.061Z,5.27
2019-05-10T14:43:21.485Z,5.73
2019-05-10T14:45:51.797Z,4.33
2019-05-10T14:48:27.814Z,9.10
2019-05-10T14:50:54.006Z,7.97
2019-05-10T14:53:25.582Z,5.23
2019-05-10T14:55:56.631Z,10.03
2019-05-10T14:58:26.914Z,8.33
2019-05-10T15:00:57.283Z,7.33
2019-05-10T15:03:27.752Z,6.47
2019-05-10T15:06:01.453Z,8.10
2019-05-10T15:08:30.158Z,7.30
2019-05-10T15:11:00.656Z,8.87
2019-05-10T15:13:34.775Z,7.30
2019-05-10T15:16:06.925Z,5.43
2019-05-10T15:18:35.301Z,6.80
2019-05-10T15:21:05.793Z,7.17
2019-05-10T15:23:35.937Z,4.53
2019-05-10T15:26:11.675Z,11.10
2019-05-10T15:28:40.435Z,6.63
2019-05-10T15:31:10.195Z,9.27
2019-05-10T15:33:40.478Z,8.50
2019-05-10T15:36:10.874Z,6.07
2019-05-10T15:38:49.957Z,8.07
2019-05-10T15:41:17.093Z,14.63
2019-05-10T15:43:48.943Z,5.23
2019-05-10T15:46:17.641Z,4.50
2019-05-10T15:48:48.081Z,5.87
2019-05-10T15:51:18.604Z,7.20
2019-05-10T15:53:48.865Z,7.73
2019-05-10T15:56:19.259Z,7.90
2019-05-10T15:58:49.628Z,7.57
2019-05-10T16:01:26.125Z,8.67
2019-05-10T16:03:51.761Z,7.20
2019-05-10T16:06:22.121Z,8.67
2019-05-10T16:08:52.613Z,6.47
2019-05-10T16:11:22.994Z,11.20
2019-05-10T16:13:54.710Z,5.20
2019-05-10T16:16:30.364Z,9.67
2019-05-10T16:18:57.371Z,10.63
2019-05-10T16:21:27.748Z,6.70
2019-05-10T16:23:58.138Z,4.00
2019-05-10T16:26:28.524Z,6.93
2019-05-10T16:29:02.269Z,10.50
2019-05-10T16:31:31.004Z,5.70
2019-05-10T16:34:01.294Z,6.63
2019-05-10T16:36:31.497Z,7.07
2019-05-10T16:39:02.112Z,6.30
2019-05-10T16:41:32.535Z,5.63
2019-05-10T16:44:02.748Z,8.90
2019-05-10T16:46:33.301Z,6.43
2019-05-10T16:49:03.937Z,6.67
2019-05-10T16:51:34.489Z,5.63
2019-05-10T16:54:04.852Z,4.93
2019-05-10T16:56:35.132Z,5.73
2019-05-10T16:59:05.344Z,7.33
2019-05-10T17:01:35.780Z,6.43
2019-05-10T17:04:06.233Z,8.97
2019-05-10T17:06:40.402Z,8.10
2019-05-10T17:09:17.597Z,4.57
2019-05-10T17:11:41.689Z,12.63
2019-05-10T17:14:18.010Z,6.13
2019-05-10T17:16:50.241Z,5.07
2019-05-10T17:19:17.244Z,5.77
2019-05-10T17:21:47.737Z,5.90
2019-05-10T17:24:18.664Z,4.80
2019-05-10T17:26:49.962Z,9.20
2019-05-10T17:29:20.261Z,6.23
2019-05-10T17:31:50.721Z,7.40
2019-05-10T17:34:29.079Z,6.57
2019-05-10T17:36:57.943Z,8.67
2019-05-10T17:39:26.243Z,6.70
2019-05-10T17:42:02.569Z,5.00
2019-05-10T17:44:29.296Z,7.13
2019-05-10T17:46:59.578Z,6.40
2019-05-10T17:49:29.985Z,8.37
2019-05-10T17:52:00.383Z,9.07
2019-05-10T17:54:33.838Z,6.10
2019-05-10T17:57:02.834Z,5.27
2019-05-10T17:59:33.314Z,7.47
2019-05-10T18:02:03.641Z,8.53
2019-05-10T18:04:33.923Z,5.70
2019-05-10T18:07:04.348Z,4.93
2019-05-10T18:09:34.740Z,7.73
2019-05-10T18:12:05.097Z,10.70
2019-05-10T18:14:35.624Z,9.27
2019-05-10T18:17:07.297Z,8.97
2019-05-10T18:19:37.537Z,9.10
2019-05-10T18:22:08.105Z,5.87
2019-05-10T18:24:42.248Z,9.00
2019-05-10T18:27:10.301Z,6.33
2019-05-10T18:29:40.757Z,8.60
2019-05-10T18:32:11.274Z,11.03
2019-05-10T18:34:41.725Z,16.50
2019-05-10T18:37:15.887Z,18.90
2019-05-10T18:39:50.992Z,19.07
2019-05-10T18:42:18.756Z,8.93
2019-05-10T18:44:51.883Z,7.10
2019-05-10T18:47:20.225Z,8.40
2019-05-10T18:49:50.628Z,8.57
2019-05-10T18:52:21.180Z,11.13
2019-05-10T18:54:51.566Z,9.43
2019-05-10T18:57:21.958Z,9.47
2019-05-10T18:59:52.237Z,10.53
2019-05-10T19:02:22.904Z,11.53
2019-05-10T19:04:54.271Z,10.23
2019-05-10T19:07:24.725Z,9.67
2019-05-10T19:09:55.033Z,10.53
2019-05-10T19:12:25.967Z,11.50
2019-05-10T19:14:56.366Z,10.73
2019-05-10T19:17:26.830Z,10.20
2019-05-10T19:19:57.325Z,11.13
2019-05-10T19:22:27.553Z,12.27
2019-05-10T19:25:04.322Z,12.23
2019-05-10T19:27:29.953Z,11.87
2019-05-10T19:30:00.277Z,14.10
2019-05-10T19:32:30.661Z,11.00
2019-05-10T19:35:01.046Z,12.00
2019-05-10T19:37:34.341Z,12.20
2019-05-10T19:40:04.214Z,14.87
2019-05-10T19:42:37.055Z,14.03
2019-05-10T19:45:07.417Z,13.80
2019-05-10T19:47:37.728Z,13.63
2019-05-10T19:50:08.451Z,13.43
2019-05-10T19:52:38.849Z,13.23
2019-05-10T19:55:12.953Z,16.93
2019-05-10T19:57:42.160Z,18.27
2019-05-10T20:00:12.960Z,16.60
2019-05-10T20:02:43.182Z,18.23
2019-05-10T20:05:13.838Z,17.37
2019-05-10T20:07:46.388Z,18.03
2019-05-10T20:10:16.626Z,15.10
2019-05-10T20:12:46.910Z,17.73
2019-05-10T20:15:17.276Z,17.00
2019-05-10T20:17:47.501Z,18.40
2019-05-10T20:20:18.029Z,17.67
2019-05-10T20:22:48.378Z,17.93
2019-05-10T20:25:18.705Z,15.70
2019-05-10T20:27:49.004Z,19.27
2019-05-10T20:30:20.803Z,16.13
2019-05-10T20:32:51.298Z,18.83
2019-05-10T20:35:21.677Z,20.63
2019-05-10T20:38:01.495Z,21.33
2019-05-10T20:40:24.086Z,19.60
2019-05-10T20:42:54.493Z,21.80
2019-05-10T20:45:24.981Z,24.53
2019-05-10T20:47:55.409Z,22.97
2019-05-10T20:50:25.863Z,25.83
2019-05-10T20:52:56.360Z,24.07
2019-05-10T20:55:26.686Z,23.90
2019-05-10T20:57:56.915Z,27.47
2019-05-10T21:00:27.389Z,23.53
2019-05-10T21:02:57.801Z,18.27
2019-05-10T21:05:28.181Z,22.03
2019-05-10T21:07:58.576Z,21.17
2019-05-10T21:10:28.866Z,23.73
2019-05-10T21:12:59.253Z,19.93
2019-05-10T21:15:29.826Z,23.37
2019-05-10T21:18:00.208Z,23.90
2019-05-10T21:20:30.606Z,19.33
2019-05-10T21:23:00.996Z,18.33
2019-05-10T21:25:31.292Z,18.80
2019-05-10T21:28:01.675Z,18.23
2019-05-10T21:30:31.968Z,19.70
2019-05-10T21:33:02.307Z,20.00
2019-05-10T21:35:32.585Z,20.00
2019-05-10T21:38:02.885Z,21.57
2019-05-10T21:40:33.100Z,22.70
2019-05-10T21:43:03.740Z,18.33
2019-05-10T21:45:34.118Z,19.80
2019-05-10T21:48:04.554Z,19.70
2019-05-10T21:50:34.919Z,15.87
2019-05-10T21:53:05.386Z,18.30
2019-05-10T21:55:35.893Z,16.73
2019-05-10T21:58:06.568Z,15.03
2019-05-10T22:00:38.825Z,16.73
2019-05-10T22:03:09.210Z,19.50
2019-05-10T22:05:39.609Z,16.90
2019-05-10T22:08:10.062Z,17.30
2019-05-10T22:10:40.414Z,15.90
2019-05-10T22:13:10.948Z,14.43
2019-05-10T22:15:41.496Z,16.70
2019-05-10T22:18:12.051Z,15.63
2019-05-10T22:20:42.373Z,15.47
2019-05-10T22:23:12.586Z,18.63
2019-05-10T22:25:42.980Z,16.97
2019-05-10T22:28:13.389Z,14.03
2019-05-10T22:30:44.395Z,16.13
2019-05-10T22:33:14.733Z,16.30
2019-05-10T22:35:45.025Z,19.27
2019-05-10T22:38:15.521Z,19.63
2019-05-10T22:40:45.898Z,16.90
2019-05-10T22:43:16.301Z,16.73
2019-05-10T22:45:46.512Z,19.63
2019-05-10T22:48:16.984Z,20.40
2019-05-10T22:50:47.273Z,17.07
2019-05-10T22:53:17.673Z,18.70
2019-05-10T22:55:47.958Z,19.57
2019-05-10T22:58:18.372Z,17.90
2019-05-10T23:00:48.641Z,19.20
2019-05-10T23:03:23.926Z,15.53
2019-05-10T23:05:51.686Z,18.10
2019-05-10T23:08:22.118Z,14.53
2019-05-10T23:10:52.467Z,13.93
2019-05-10T23:13:23.143Z,14.27
2019-05-10T23:15:53.425Z,13.70
2019-05-10T23:18:23.791Z,12.13
2019-05-10T23:20:54.073Z,13.17
2019-05-10T23:23:24.460Z,11.30
2019-05-10T23:25:55.052Z,10.37
2019-05-10T23:28:25.504Z,15.10
2019-05-10T23:30:55.831Z,11.40
2019-05-10T23:33:26.205Z,13.50
2019-05-10T23:35:56.752Z,9.60
2019-05-10T23:38:27.094Z,10.53
2019-05-10T23:40:57.340Z,11.47
2019-05-10T23:43:27.613Z,17.10
2019-05-10T23:45:58.110Z,12.03
2019-05-10T23:48:28.317Z,15.70
2019-05-10T23:50:58.804Z,9.80
2019-05-10T23:53:29.185Z,10.17
2019-05-10T23:55:59.397Z,7.50
2019-05-10T23:58:29.821Z,8.50
